createdAt,value
2023-05-10T00:01:20.441Z,14.30
2023-05-10T00:03:46.856Z,14.42
2023-05-10T00:06:13.556Z,14.32
2023-05-10T00:08:39.934Z,14.35
2023-05-10T00:11:06.324Z,14.15
2023-05-10T00:13:33.129Z,13.99
2023-05-10T00:15:59.713Z,13.93
2023-05-10T00:18:26.189Z,13.96
2023-05-10T00:20:52.641Z,13.99
2023-05-10T00:23:19.059Z,14.01
2023-05-10T00:25:45.456Z,14.00
2023-05-10T00:28:12.185Z,14.03
2023-05-10T00:30:38.671Z,13.86
2023-05-10T00:33:05.191Z,13.87
2023-05-10T00:35:31.723Z,13.84
2023-05-10T00:37:58.079Z,13.89
2023-05-10T00:40:24.647Z,13.85
2023-05-10T00:42:55.897Z,13.90
2023-05-10T00:45:22.354Z,13.69
2023-05-10T00:47:48.909Z,13.61
2023-05-10T00:50:16.387Z,13.57
2023-05-10T00:52:43.683Z,13.51
2023-05-10T00:55:13.113Z,13.51
2023-05-10T00:57:40.464Z,13.52
2023-05-10T01:00:07.642Z,13.58
2023-05-10T01:02:36.219Z,13.55
2023-05-10T01:05:04.649Z,13.50
2023-05-10T01:07:31.517Z,13.43
2023-05-10T01:09:58.631Z,13.40
2023-05-10T01:12:25.333Z,13.32
2023-05-10T01:14:51.871Z,13.26
2023-05-10T01:17:18.444Z,13.30
2023-05-10T01:19:44.917Z,13.23
2023-05-10T01:22:31.529Z,13.36
2023-05-10T01:25:10.373Z,13.33
2023-05-10T01:27:43.459Z,13.30
2023-05-10T01:31:04.657Z,13.28
2023-05-10T01:33:42.079Z,13.30
2023-05-10T01:36:14.972Z,13.26
2023-05-10T01:39:00.004Z,13.21
2023-05-10T01:41:43.389Z,13.29
2023-05-10T01:44:37.112Z,13.18
2023-05-10T01:47:18.103Z,13.18
2023-05-10T01:49:48.679Z,13.13
2023-05-10T01:52:20.201Z,13.15
2023-05-10T01:54:55.070Z,13.20
2023-05-10T01:57:26.747Z,13.18
2023-05-10T01:59:54.765Z,13.19
2023-05-10T02:02:22.004Z,13.20
2023-05-10T02:04:50.433Z,13.25
2023-05-10T02:07:18.308Z,13.27
2023-05-10T02:09:48.850Z,13.29
2023-05-10T02:12:17.134Z,13.30
2023-05-10T02:14:45.744Z,13.31
2023-05-10T02:17:12.979Z,13.35
2023-05-10T02:19:42.629Z,13.37
2023-05-10T02:22:10.479Z,13.40
2023-05-10T02:24:38.198Z,13.36
2023-05-10T02:27:06.172Z,13.38
2023-05-10T02:29:34.594Z,13.43
2023-05-10T02:32:02.505Z,13.37
2023-05-10T02:34:31.476Z,13.40
2023-05-10T02:36:59.367Z,13.33
2023-05-10T02:39:29.512Z,13.29
2023-05-10T02:41:58.257Z,13.25
2023-05-10T02:44:27.826Z,13.25
2023-05-10T02:46:56.801Z,13.15
2023-05-10T02:49:23.290Z,13.07
2023-05-10T02:51:54.383Z,13.08
2023-05-10T02:54:28.416Z,13.11
2023-05-10T02:57:04.754Z,13.10
2023-05-10T02:59:31.952Z,13.15
2023-05-10T03:01:58.451Z,13.18
2023-05-10T03:04:24.965Z,13.15
2023-05-10T03:06:54.679Z,13.12
2023-05-10T03:09:22.033Z,13.11
2023-05-10T03:12:21.394Z,13.13
2023-05-10T03:15:32.822Z,13.12
2023-05-10T03:18:08.715Z,13.13
2023-05-10T03:20:49.274Z,13.16
2023-05-10T03:23:18.658Z,13.13
2023-05-10T03:25:47.862Z,13.14
2023-05-10T03:28:16.423Z,13.05
2023-05-10T03:30:44.332Z,13.03
2023-05-10T03:33:13.674Z,12.98
2023-05-10T03:35:42.598Z,12.89
2023-05-10T03:38:09.088Z,12.85
2023-05-10T03:40:35.773Z,12.88
2023-05-10T03:43:02.811Z,12.91
2023-05-10T03:45:29.638Z,12.93
2023-05-10T03:47:56.247Z,12.97
2023-05-10T03:50:22.821Z,12.98
2023-05-10T03:52:49.239Z,12.99
2023-05-10T03:55:15.702Z,12.98
2023-05-10T03:57:42.249Z,12.91
2023-05-10T04:00:09.723Z,12.95
2023-05-10T04:02:43.208Z,12.91
2023-05-10T04:05:14.842Z,12.89
2023-05-10T04:07:41.578Z,12.94
2023-05-10T04:10:08.742Z,13.02
2023-05-10T04:12:35.259Z,13.03
2023-05-10T04:15:02.046Z,13.05
2023-05-10T04:17:28.507Z,12.99
2023-05-10T04:19:55.642Z,12.98
2023-05-10T04:22:22.072Z,12.95
2023-05-10T04:24:48.478Z,12.95
2023-05-10T04:27:15.225Z,12.95
2023-05-10T04:29:42.081Z,12.92
2023-05-10T04:32:08.971Z,12.93
2023-05-10T04:34:35.414Z,12.90
2023-05-10T04:37:02.320Z,12.75
2023-05-10T04:39:28.730Z,12.59
2023-05-10T04:41:55.127Z,12.39
2023-05-10T04:44:21.565Z,12.37
2023-05-10T04:46:48.186Z,12.33
2023-05-10T04:49:15.308Z,12.18
2023-05-10T04:51:41.746Z,11.95
2023-05-10T04:54:08.320Z,12.00
2023-05-10T04:56:34.921Z,11.91
2023-05-10T04:59:01.377Z,11.94
2023-05-10T05:01:27.984Z,12.05
2023-05-10T05:03:54.698Z,12.16
2023-05-10T05:06:22.068Z,12.20
2023-05-10T05:08:50.233Z,12.18
2023-05-10T05:11:16.904Z,12.16
2023-05-10T05:13:43.317Z,12.09
2023-05-10T05:16:10.009Z,12.18
2023-05-10T05:18:36.501Z,12.14
2023-05-10T05:21:03.054Z,12.20
2023-05-10T05:23:29.501Z,12.16
2023-05-10T05:25:56.173Z,12.13
2023-05-10T05:28:22.772Z,11.97
2023-05-10T05:30:49.369Z,11.92
2023-05-10T05:33:18.443Z,11.96
2023-05-10T05:35:48.450Z,12.02
2023-05-10T05:38:15.302Z,12.08
2023-05-10T05:40:41.722Z,12.11
2023-05-10T05:43:08.454Z,12.05
2023-05-10T05:45:35.377Z,12.16
2023-05-10T05:48:02.105Z,12.27
2023-05-10T05:50:28.606Z,12.33
2023-05-10T05:52:54.987Z,12.36
2023-05-10T05:55:21.372Z,12.42
2023-05-10T05:57:47.810Z,12.47
2023-05-10T06:00:14.730Z,12.54
2023-05-10T06:02:41.372Z,12.54
2023-05-10T06:05:08.736Z,12.57
2023-05-10T06:07:35.307Z,12.62
2023-05-10T06:10:02.111Z,12.64
2023-05-10T06:12:28.633Z,12.63
2023-05-10T06:14:55.038Z,12.62
2023-05-10T06:17:22.597Z,12.66
2023-05-10T06:19:49.058Z,12.67
2023-05-10T06:22:15.515Z,12.69
2023-05-10T06:24:42.490Z,12.71
2023-05-10T06:27:09.011Z,12.72
2023-05-10T06:29:35.467Z,12.75
2023-05-10T06:32:02.149Z,12.82
2023-05-10T06:34:28.582Z,12.88
2023-05-10T06:36:55.023Z,12.91
2023-05-10T06:39:21.476Z,12.98
2023-05-10T06:41:47.903Z,12.97
2023-05-10T06:44:14.338Z,12.90
2023-05-10T06:46:40.866Z,12.82
2023-05-10T06:49:07.476Z,12.90
2023-05-10T06:51:33.904Z,12.77
2023-05-10T06:54:00.321Z,12.70
2023-05-10T06:56:26.971Z,12.71
2023-05-10T06:58:53.576Z,12.73
2023-05-10T07:01:20.296Z,12.80
2023-05-10T07:03:46.840Z,12.70
2023-05-10T07:06:21.778Z,12.68
2023-05-10T07:08:56.455Z,12.82
2023-05-10T07:11:22.856Z,12.72
2023-05-10T07:13:49.255Z,12.72
2023-05-10T07:16:15.716Z,12.73
2023-05-10T07:18:42.233Z,12.70
2023-05-10T07:21:08.708Z,12.69
2023-05-10T07:23:35.194Z,12.80
2023-05-10T07:26:01.780Z,12.95
2023-05-10T07:28:28.153Z,12.97
2023-05-10T07:30:54.632Z,13.02
2023-05-10T07:33:21.113Z,13.06
2023-05-10T07:35:47.518Z,13.05
2023-05-10T07:38:13.979Z,13.13
2023-05-10T07:40:40.787Z,13.06
2023-05-10T07:43:07.516Z,13.08
2023-05-10T07:45:35.075Z,13.20
2023-05-10T07:48:01.580Z,13.13
2023-05-10T07:50:28.351Z,13.16
2023-05-10T07:52:54.829Z,13.19
2023-05-10T07:55:24.114Z,13.23
2023-05-10T07:57:50.574Z,13.37
2023-05-10T08:00:21.268Z,13.43
2023-05-10T08:02:48.487Z,13.37
2023-05-10T08:05:16.160Z,13.37
2023-05-10T08:07:43.338Z,13.32
2023-05-10T08:10:11.904Z,13.29
2023-05-10T08:12:39.410Z,13.33
2023-05-10T08:15:07.581Z,13.38
2023-05-10T08:17:34.074Z,13.43
2023-05-10T08:20:01.161Z,13.35
2023-05-10T08:22:27.598Z,13.29
2023-05-10T08:24:53.980Z,13.25
2023-05-10T08:27:20.459Z,13.16
2023-05-10T08:29:50.490Z,13.13
2023-05-10T08:32:17.539Z,13.16
2023-05-10T08:34:44.018Z,13.19
2023-05-10T08:37:13.819Z,13.04
2023-05-10T08:39:40.611Z,12.94
2023-05-10T08:42:09.258Z,12.82
2023-05-10T08:44:37.617Z,12.94
2023-05-10T08:47:07.585Z,13.05
2023-05-10T08:49:34.606Z,13.18
2023-05-10T08:52:05.045Z,13.35
2023-05-10T08:54:34.074Z,13.40
2023-05-10T08:57:01.581Z,13.41
2023-05-10T08:59:28.608Z,13.47
2023-05-10T09:01:58.261Z,13.59
2023-05-10T09:04:25.297Z,13.55
2023-05-10T09:06:51.808Z,13.61
2023-05-10T09:09:20.321Z,13.83
2023-05-10T09:11:47.128Z,13.95
2023-05-10T09:14:13.919Z,13.95
2023-05-10T09:16:41.489Z,13.87
2023-05-10T09:19:09.546Z,13.92
2023-05-10T09:21:39.934Z,13.99
2023-05-10T09:24:07.818Z,14.11
2023-05-10T09:26:36.596Z,14.12
2023-05-10T09:29:05.142Z,14.35
2023-05-10T09:31:48.984Z,14.39
2023-05-10T09:34:19.990Z,14.40
2023-05-10T09:36:57.620Z,14.43
2023-05-10T09:39:35.568Z,14.37
2023-05-10T09:42:07.558Z,14.44
2023-05-10T09:44:35.700Z,14.53
2023-05-10T09:47:02.840Z,14.53
2023-05-10T09:49:29.608Z,14.50
2023-05-10T09:52:03.402Z,14.52
2023-05-10T09:54:30.061Z,14.64
2023-05-10T09:56:56.496Z,14.80
2023-05-10T09:59:27.444Z,15.07
2023-05-10T10:01:59.180Z,15.19
2023-05-10T10:04:28.970Z,15.24
2023-05-10T10:07:04.398Z,15.45
2023-05-10T10:09:31.388Z,15.52
2023-05-10T10:11:58.547Z,15.45
2023-05-10T10:14:25.548Z,15.38
2023-05-10T10:17:05.852Z,15.49
2023-05-10T10:19:36.575Z,15.68
2023-05-10T10:22:03.743Z,15.69
2023-05-10T10:24:30.309Z,15.76
2023-05-10T10:27:06.410Z,15.78
2023-05-10T10:29:45.644Z,15.68
2023-05-10T10:32:36.775Z,15.74
2023-05-10T10:35:03.762Z,15.83
2023-05-10T10:37:47.954Z,15.90
2023-05-10T10:40:34.616Z,16.02
2023-05-10T10:43:25.261Z,16.02
2023-05-10T10:46:11.295Z,16.19
2023-05-10T10:48:38.018Z,16.21
2023-05-10T10:51:04.464Z,16.23
2023-05-10T10:53:31.875Z,16.07
2023-05-10T10:56:25.169Z,16.14
2023-05-10T10:58:53.402Z,16.17
2023-05-10T11:01:20.411Z,16.32
2023-05-10T11:04:19.279Z,16.58
2023-05-10T11:06:45.787Z,16.99
2023-05-10T11:09:13.406Z,17.32
2023-05-10T11:11:51.767Z,17.63
2023-05-10T11:14:22.230Z,17.63
2023-05-10T11:16:48.729Z,17.73
2023-05-10T11:19:17.453Z,17.73
2023-05-10T11:22:14.453Z,17.25
2023-05-10T11:24:40.888Z,17.02
2023-05-10T11:27:07.793Z,17.06
2023-05-10T11:29:34.201Z,17.39
2023-05-10T11:32:01.808Z,17.91
2023-05-10T11:34:35.800Z,18.38
2023-05-10T11:37:02.491Z,18.46
2023-05-10T11:39:30.778Z,18.30
2023-05-10T11:41:58.569Z,18.29
2023-05-10T11:44:30.785Z,18.32
2023-05-10T11:47:00.942Z,18.20
2023-05-10T11:49:27.475Z,18.16
2023-05-10T11:51:53.871Z,18.21
2023-05-10T11:54:20.300Z,18.44
2023-05-10T11:56:46.898Z,18.74
2023-05-10T11:59:15.655Z,18.77
2023-05-10T12:01:42.694Z,18.55
2023-05-10T12:04:09.438Z,18.18
2023-05-10T12:06:41.426Z,18.20
2023-05-10T12:09:08.920Z,18.00
2023-05-10T12:11:42.561Z,17.95
2023-05-10T12:14:10.841Z,18.00
2023-05-10T12:16:37.445Z,18.14
2023-05-10T12:19:04.110Z,17.89
2023-05-10T12:21:31.962Z,17.83
2023-05-10T12:24:06.278Z,18.09
2023-05-10T12:26:33.268Z,18.20
2023-05-10T12:29:19.905Z,18.21
2023-05-10T12:31:57.988Z,18.31
2023-05-10T12:34:31.358Z,18.44
2023-05-10T12:36:57.985Z,18.36
2023-05-10T12:39:25.272Z,17.91
2023-05-10T12:41:52.848Z,17.83
2023-05-10T12:44:19.568Z,17.53
2023-05-10T12:46:45.996Z,17.32
2023-05-10T12:49:12.859Z,17.11
2023-05-10T12:51:39.364Z,16.93
2023-05-10T12:54:05.949Z,16.80
2023-05-10T12:56:32.661Z,16.90
2023-05-10T12:58:59.111Z,17.49
2023-05-10T13:01:26.508Z,17.93
2023-05-10T13:03:52.961Z,18.23
2023-05-10T13:06:19.436Z,18.25
2023-05-10T13:08:45.859Z,18.21
2023-05-10T13:11:12.375Z,17.96
2023-05-10T13:13:38.943Z,17.74
2023-05-10T13:16:05.728Z,17.63
2023-05-10T13:18:32.271Z,17.37
2023-05-10T13:20:59.201Z,17.28
2023-05-10T13:23:26.266Z,17.11
2023-05-10T13:25:52.980Z,17.10
2023-05-10T13:28:19.373Z,17.00
2023-05-10T13:30:45.769Z,16.95
2023-05-10T13:33:12.210Z,16.85
2023-05-10T13:35:38.873Z,16.92
2023-05-10T13:38:05.397Z,16.93
2023-05-10T13:40:32.022Z,17.04
2023-05-10T13:42:58.454Z,17.12
2023-05-10T13:45:25.011Z,17.39
2023-05-10T13:47:51.459Z,17.30
2023-05-10T13:50:18.926Z,17.53
2023-05-10T13:52:45.460Z,17.82
2023-05-10T13:55:14.063Z,18.06
2023-05-10T13:57:40.628Z,18.08
2023-05-10T14:00:07.889Z,17.93
2023-05-10T14:02:37.374Z,17.81
2023-05-10T14:05:04.500Z,17.58
2023-05-10T14:07:31.870Z,17.68
2023-05-10T14:09:58.338Z,17.99
2023-05-10T14:12:24.762Z,18.21
2023-05-10T14:14:51.159Z,18.39
2023-05-10T14:17:17.573Z,18.57
2023-05-10T14:19:44.224Z,18.61
2023-05-10T14:22:10.758Z,18.56
2023-05-10T14:24:39.130Z,18.47
2023-05-10T14:27:05.697Z,18.40
2023-05-10T14:29:32.174Z,18.50
2023-05-10T14:31:58.718Z,18.32
2023-05-10T14:34:25.322Z,18.32
2023-05-10T14:36:51.785Z,18.12
2023-05-10T14:39:18.152Z,18.21
2023-05-10T14:41:45.594Z,18.33
2023-05-10T14:44:12.348Z,18.48
2023-05-10T14:46:39.469Z,18.62
2023-05-10T14:49:06.048Z,18.82
2023-05-10T14:51:32.965Z,18.87
2023-05-10T14:53:59.554Z,19.03
2023-05-10T14:56:27.103Z,19.20
2023-05-10T14:58:53.527Z,19.21
2023-05-10T15:01:20.503Z,18.99
2023-05-10T15:03:47.399Z,19.03
2023-05-10T15:06:16.986Z,19.06
2023-05-10T15:08:43.453Z,19.17
2023-05-10T15:11:09.931Z,19.39
2023-05-10T15:13:36.792Z,19.30
2023-05-10T15:16:03.256Z,19.51
2023-05-10T15:18:29.788Z,19.28
2023-05-10T15:20:56.328Z,19.30
2023-05-10T15:23:22.792Z,19.15
2023-05-10T15:25:50.688Z,19.22
2023-05-10T15:28:17.132Z,19.34
2023-05-10T15:30:43.560Z,19.32
2023-05-10T15:33:10.002Z,19.17
2023-05-10T15:35:39.117Z,18.99
2023-05-10T15:38:05.672Z,18.82
2023-05-10T15:40:32.480Z,18.74
2023-05-10T15:42:59.069Z,18.75
2023-05-10T15:45:26.337Z,18.70
2023-05-10T15:47:52.901Z,18.48
2023-05-10T15:50:19.311Z,18.46
2023-05-10T15:52:45.962Z,18.38
2023-05-10T15:55:13.377Z,18.39
2023-05-10T15:57:41.243Z,18.38
2023-05-10T16:00:09.304Z,18.39
2023-05-10T16:02:40.006Z,18.27
2023-05-10T16:05:06.982Z,18.29
2023-05-10T16:07:34.159Z,18.33
2023-05-10T16:10:06.646Z,18.39
2023-05-10T16:12:34.271Z,18.25
2023-05-10T16:15:04.202Z,18.20
2023-05-10T16:17:30.806Z,18.12
2023-05-10T16:19:57.280Z,18.21
2023-05-10T16:22:27.154Z,18.26
2023-05-10T16:24:53.907Z,18.13
2023-05-10T16:27:20.498Z,18.17
2023-05-10T16:29:47.611Z,18.19
2023-05-10T16:32:14.111Z,18.21
2023-05-10T16:34:40.720Z,18.18
2023-05-10T16:37:07.366Z,18.11
2023-05-10T16:39:34.063Z,17.97
2023-05-10T16:42:02.930Z,18.02
2023-05-10T16:44:29.410Z,17.91
2023-05-10T16:46:55.962Z,17.92
2023-05-10T16:49:23.749Z,17.81
2023-05-10T16:51:52.389Z,17.75
2023-05-10T16:54:18.848Z,17.68
2023-05-10T16:56:45.226Z,17.67
2023-05-10T16:59:11.702Z,17.59
2023-05-10T17:01:38.205Z,17.63
2023-05-10T17:04:04.681Z,17.63
2023-05-10T17:06:31.341Z,17.58
2023-05-10T17:08:58.080Z,17.44
2023-05-10T17:11:24.493Z,17.45
2023-05-10T17:13:52.305Z,17.34
2023-05-10T17:16:20.867Z,17.32
2023-05-10T17:18:47.717Z,17.30
2023-05-10T17:21:14.160Z,17.33
2023-05-10T17:23:40.860Z,17.34
2023-05-10T17:26:08.707Z,17.28
2023-05-10T17:28:35.393Z,17.15
2023-05-10T17:31:02.132Z,17.07
2023-05-10T17:33:29.752Z,17.06
2023-05-10T17:35:56.646Z,16.99
2023-05-10T17:38:23.122Z,17.03
2023-05-10T17:40:49.513Z,16.92
2023-05-10T17:43:15.993Z,16.81
2023-05-10T17:45:42.599Z,16.77
2023-05-10T17:48:11.151Z,16.59
2023-05-10T17:50:37.772Z,16.55
2023-05-10T17:53:04.315Z,16.53
2023-05-10T17:55:31.030Z,16.40
2023-05-10T17:57:59.404Z,16.20
2023-05-10T18:00:25.860Z,16.21
2023-05-10T18:02:52.379Z,16.21
2023-05-10T18:05:19.071Z,16.13
2023-05-10T18:07:45.776Z,16.05
2023-05-10T18:10:12.301Z,16.05
2023-05-10T18:12:38.797Z,16.05
2023-05-10T18:15:05.594Z,16.02
2023-05-10T18:17:34.814Z,16.11
2023-05-10T18:20:02.565Z,15.80
2023-05-10T18:22:29.065Z,15.71
2023-05-10T18:24:55.489Z,15.69
2023-05-10T18:27:21.937Z,15.57
2023-05-10T18:29:48.497Z,15.51
2023-05-10T18:32:14.865Z,15.48
2023-05-10T18:34:41.229Z,15.31
2023-05-10T18:37:08.234Z,15.32
2023-05-10T18:39:34.684Z,15.35
2023-05-10T18:42:01.731Z,15.30
2023-05-10T18:44:28.955Z,15.30
2023-05-10T18:46:55.494Z,15.16
2023-05-10T18:49:22.061Z,15.15
2023-05-10T18:51:48.439Z,15.00
2023-05-10T18:54:14.930Z,14.94
2023-05-10T18:56:47.406Z,14.89
2023-05-10T18:59:14.242Z,14.93
2023-05-10T19:01:41.018Z,14.78
2023-05-10T19:04:08.839Z,14.64
2023-05-10T19:06:36.032Z,14.65
2023-05-10T19:09:02.763Z,14.63
2023-05-10T19:11:32.111Z,14.55
2023-05-10T19:13:58.795Z,14.55
2023-05-10T19:16:26.091Z,14.56
2023-05-10T19:18:52.595Z,14.58
2023-05-10T19:21:19.229Z,14.59
2023-05-10T19:23:47.480Z,14.59
2023-05-10T19:26:13.978Z,14.62
2023-05-10T19:28:40.556Z,14.60
2023-05-10T19:31:07.758Z,14.60
2023-05-10T19:33:36.154Z,14.61
2023-05-10T19:36:03.064Z,14.60
2023-05-10T19:38:29.678Z,14.50
2023-05-10T19:40:58.103Z,14.41
2023-05-10T19:43:25.948Z,14.39
2023-05-10T19:45:52.564Z,14.39
2023-05-10T19:48:19.097Z,14.43
2023-05-10T19:50:45.616Z,14.34
2023-05-10T19:53:12.517Z,14.30
2023-05-10T19:55:39.016Z,14.31
2023-05-10T19:58:05.628Z,14.34
2023-05-10T20:00:32.186Z,14.29
2023-05-10T20:02:58.734Z,14.36
2023-05-10T20:05:25.537Z,14.33
2023-05-10T20:07:52.011Z,14.32
2023-05-10T20:10:18.978Z,14.32
2023-05-10T20:12:51.049Z,14.41
2023-05-10T20:15:21.817Z,14.48
2023-05-10T20:17:51.045Z,14.43
2023-05-10T20:20:17.854Z,14.45
2023-05-10T20:22:44.555Z,14.39
2023-05-10T20:25:11.285Z,14.30
2023-05-10T20:27:38.338Z,14.24
2023-05-10T20:30:05.859Z,14.18
2023-05-10T20:32:32.436Z,14.22
2023-05-10T20:34:58.905Z,14.13
2023-05-10T20:37:27.244Z,14.08
2023-05-10T20:39:54.383Z,14.01
2023-05-10T20:42:23.751Z,14.02
2023-05-10T20:44:50.556Z,14.02
2023-05-10T20:47:18.040Z,14.05
2023-05-10T20:49:44.470Z,14.06
2023-05-10T20:52:11.235Z,14.04
2023-05-10T20:54:37.681Z,14.03
2023-05-10T20:57:04.091Z,14.05
2023-05-10T20:59:30.679Z,14.07
2023-05-10T21:01:57.668Z,14.03
2023-05-10T21:04:25.728Z,14.06
2023-05-10T21:06:52.956Z,13.98
2023-05-10T21:09:19.528Z,14.00
2023-05-10T21:11:45.991Z,14.02
2023-05-10T21:14:12.532Z,14.00
2023-05-10T21:16:39.301Z,13.90
2023-05-10T21:19:07.167Z,13.98
2023-05-10T21:21:34.192Z,13.95
2023-05-10T21:24:00.774Z,13.93
2023-05-10T21:26:28.593Z,13.93
2023-05-10T21:28:55.126Z,13.95
2023-05-10T21:31:21.613Z,13.96
2023-05-10T21:33:48.073Z,13.92
2023-05-10T21:36:14.463Z,13.84
2023-05-10T21:38:42.275Z,13.80
2023-05-10T21:41:08.783Z,13.80
2023-05-10T21:43:35.417Z,13.78
2023-05-10T21:46:01.873Z,13.80
2023-05-10T21:48:28.969Z,13.80
2023-05-10T21:50:55.405Z,13.83
2023-05-10T21:53:22.372Z,13.83
2023-05-10T21:55:48.856Z,13.83
2023-05-10T21:58:15.324Z,13.82
2023-05-10T22:00:41.716Z,13.82
2023-05-10T22:03:08.731Z,13.80
2023-05-10T22:05:35.587Z,13.79
2023-05-10T22:08:02.240Z,13.83
2023-05-10T22:10:28.622Z,13.81
2023-05-10T22:12:55.040Z,13.79
2023-05-10T22:15:21.588Z,13.81
2023-05-10T22:17:48.040Z,13.80
2023-05-10T22:20:15.180Z,13.84
2023-05-10T22:22:41.854Z,13.81
2023-05-10T22:25:08.901Z,13.79
2023-05-10T22:27:35.764Z,13.79
2023-05-10T22:30:02.996Z,13.72
2023-05-10T22:32:29.413Z,13.73
2023-05-10T22:34:56.328Z,13.71
2023-05-10T22:37:22.753Z,13.69
2023-05-10T22:39:49.752Z,13.69
2023-05-10T22:42:16.367Z,13.72
2023-05-10T22:44:43.295Z,13.70
2023-05-10T22:47:09.768Z,13.68
2023-05-10T22:49:36.258Z,13.62
2023-05-10T22:52:02.935Z,13.53
2023-05-10T22:54:29.355Z,13.56
2023-05-10T22:56:56.425Z,13.58
2023-05-10T22:59:23.077Z,13.57
2023-05-10T23:01:49.581Z,13.55
2023-05-10T23:04:16.107Z,13.54
2023-05-10T23:06:42.536Z,13.59
2023-05-10T23:09:09.882Z,13.49
2023-05-10T23:11:36.496Z,13.50
2023-05-10T23:14:03.131Z,13.49
2023-05-10T23:16:29.667Z,13.49
2023-05-10T23:18:56.191Z,13.57
2023-05-10T23:21:22.726Z,13.52
2023-05-10T23:23:49.326Z,13.55
2023-05-10T23:26:16.267Z,13.46
2023-05-10T23:28:42.768Z,13.35
2023-05-10T23:31:09.359Z,13.31
2023-05-10T23:33:35.956Z,13.29
2023-05-10T23:36:02.424Z,13.29
2023-05-10T23:38:28.860Z,13.27
2023-05-10T23:40:55.294Z,13.27
2023-05-10T23:43:21.886Z,13.26
2023-05-10T23:45:58.227Z,13.26
2023-05-10T23:48:24.892Z,13.21
2023-05-10T23:50:51.693Z,13.15
2023-05-10T23:53:18.580Z,13.15
2023-05-10T23:55:45.809Z,13.15
2023-05-10T23:58:12.473Z,13.13
